createdAt,value
2022-11-18T00:00:13.770Z,3.60
2022-11-18T00:02:41.833Z,3.23
2022-11-18T00:05:10.012Z,2.27
2022-11-18T00:07:39.436Z,2.53
2022-11-18T00:10:07.893Z,2.10
2022-11-18T00:12:53.261Z,1.80
2022-11-18T00:15:21.294Z,2.30
2022-11-18T00:17:49.381Z,2.00
2022-11-18T00:20:17.570Z,2.10
2022-11-18T00:22:47.618Z,3.10
2022-11-18T00:25:15.676Z,2.00
2022-11-18T00:27:43.619Z,2.10
2022-11-18T00:30:12.900Z,2.30
2022-11-18T00:32:40.989Z,2.50
2022-11-18T00:35:09.500Z,2.43
2022-11-18T00:37:37.494Z,2.20
2022-11-18T00:40:08.319Z,3.20
2022-11-18T00:42:54.340Z,3.10
2022-11-18T00:45:23.285Z,2.37
2022-11-18T00:47:51.284Z,2.93
2022-11-18T00:50:19.274Z,2.70
2022-11-18T00:52:47.635Z,3.07
2022-11-18T00:55:17.029Z,3.10
2022-11-18T00:57:44.957Z,2.80
2022-11-18T01:00:13.694Z,3.13
2022-11-18T01:02:41.609Z,3.80
2022-11-18T01:05:10.149Z,3.50
2022-11-18T01:07:38.128Z,3.23
2022-11-18T01:10:06.906Z,5.87
2022-11-18T01:12:54.756Z,5.17
2022-11-18T01:15:22.858Z,4.27
2022-11-18T01:17:50.945Z,4.60
2022-11-18T01:20:19.010Z,4.60
2022-11-18T01:22:46.988Z,3.70
2022-11-18T01:25:15.118Z,4.20
2022-11-18T01:27:44.375Z,4.60
2022-11-18T01:30:13.436Z,4.37
2022-11-18T01:32:41.548Z,3.83
2022-11-18T01:35:10.338Z,6.70
2022-11-18T01:37:38.273Z,12.90
2022-11-18T01:40:08.321Z,7.90
2022-11-18T01:42:37.203Z,4.77
2022-11-18T01:45:29.397Z,4.87
2022-11-18T01:48:02.363Z,5.60
2022-11-18T01:50:31.846Z,5.50
2022-11-18T01:53:04.014Z,4.13
2022-11-18T01:55:36.653Z,4.70
2022-11-18T01:58:10.787Z,4.60
2022-11-18T02:00:41.054Z,5.30
2022-11-18T02:03:09.644Z,5.67
2022-11-18T02:05:40.511Z,5.33
2022-11-18T02:08:09.141Z,5.13
2022-11-18T02:10:37.044Z,5.90
2022-11-18T02:13:05.033Z,5.50
2022-11-18T02:15:48.945Z,5.10
2022-11-18T02:18:27.870Z,5.20
2022-11-18T02:21:03.928Z,5.30
2022-11-18T02:24:16.011Z,6.20
2022-11-18T02:27:06.007Z,6.73
2022-11-18T02:29:39.362Z,5.30
2022-11-18T02:32:14.182Z,5.87
2022-11-18T02:34:50.393Z,5.20
2022-11-18T02:37:24.744Z,5.83
2022-11-18T02:39:58.665Z,5.87
2022-11-18T02:42:29.851Z,5.77
2022-11-18T02:45:04.733Z,5.33
2022-11-18T02:47:35.111Z,6.80
2022-11-18T02:50:07.069Z,6.17
2022-11-18T02:52:37.040Z,5.83
2022-11-18T02:55:09.424Z,6.40
2022-11-18T02:57:38.568Z,5.83
2022-11-18T03:00:09.257Z,6.37
2022-11-18T03:02:43.003Z,6.50
2022-11-18T03:05:17.394Z,6.73
2022-11-18T03:07:49.732Z,5.37
2022-11-18T03:10:18.467Z,6.67
2022-11-18T03:12:53.024Z,6.27
2022-11-18T03:15:31.703Z,5.53
2022-11-18T03:18:06.675Z,7.80
2022-11-18T03:20:37.772Z,6.60
2022-11-18T03:23:08.841Z,7.13
2022-11-18T03:25:44.975Z,5.80
2022-11-18T03:28:19.199Z,6.40
2022-11-18T03:30:55.114Z,5.67
2022-11-18T03:33:29.846Z,5.63
2022-11-18T03:35:59.276Z,6.03
2022-11-18T03:38:31.390Z,6.13
2022-11-18T03:41:03.318Z,5.67
2022-11-18T03:43:36.606Z,6.80
2022-11-18T03:46:09.343Z,7.20
2022-11-18T03:48:42.299Z,6.00
2022-11-18T03:51:14.131Z,6.83
2022-11-18T03:53:46.461Z,6.37
2022-11-18T03:56:17.898Z,5.17
2022-11-18T03:58:52.385Z,6.40
2022-11-18T04:01:30.528Z,7.00
2022-11-18T04:03:58.691Z,6.00
2022-11-18T04:06:36.182Z,7.17
2022-11-18T04:09:11.053Z,5.73
2022-11-18T04:12:02.566Z,6.50
2022-11-18T04:14:31.615Z,5.77
2022-11-18T04:17:00.878Z,5.87
2022-11-18T04:19:29.323Z,5.57
2022-11-18T04:21:57.241Z,5.90
2022-11-18T04:24:25.180Z,6.00
2022-11-18T04:26:53.085Z,5.37
2022-11-18T04:29:21.001Z,6.30
2022-11-18T04:31:48.910Z,7.60
2022-11-18T04:34:18.404Z,8.20
2022-11-18T04:36:46.372Z,8.30
2022-11-18T04:39:14.390Z,8.00
2022-11-18T04:42:05.129Z,7.47
2022-11-18T04:44:34.489Z,7.30
2022-11-18T04:47:05.074Z,7.30
2022-11-18T04:49:35.428Z,6.63
2022-11-18T04:52:04.825Z,6.30
2022-11-18T04:54:32.929Z,5.93
2022-11-18T04:57:01.587Z,5.63
2022-11-18T04:59:30.989Z,6.63
2022-11-18T05:02:00.897Z,5.50
2022-11-18T05:04:31.086Z,6.30
2022-11-18T05:07:01.376Z,5.83
2022-11-18T05:09:32.137Z,6.70
2022-11-18T05:12:18.044Z,6.20
2022-11-18T05:14:50.190Z,6.80
2022-11-18T05:17:19.061Z,6.00
2022-11-18T05:19:46.928Z,5.83
2022-11-18T05:22:16.902Z,5.40
2022-11-18T05:24:44.842Z,6.17
2022-11-18T05:27:12.980Z,5.13
2022-11-18T05:29:40.928Z,6.03
2022-11-18T05:32:08.890Z,5.63
2022-11-18T05:34:36.827Z,6.00
2022-11-18T05:37:04.779Z,5.80
2022-11-18T05:39:34.738Z,5.13
2022-11-18T05:42:20.669Z,6.30
2022-11-18T05:44:51.862Z,5.83
2022-11-18T05:47:25.278Z,5.10
2022-11-18T05:49:53.223Z,4.60
2022-11-18T05:52:21.171Z,4.27
2022-11-18T05:54:52.154Z,5.10
2022-11-18T05:57:20.220Z,5.30
2022-11-18T05:59:48.132Z,4.80
2022-11-18T06:02:19.719Z,4.37
2022-11-18T06:04:51.794Z,3.90
2022-11-18T06:07:23.334Z,4.10
2022-11-18T06:09:58.766Z,3.57
2022-11-18T06:12:32.735Z,3.90
2022-11-18T06:15:04.237Z,3.50
2022-11-18T06:17:37.182Z,2.73
2022-11-18T06:20:06.273Z,2.57
2022-11-18T06:22:35.820Z,2.57
2022-11-18T06:25:06.238Z,2.53
2022-11-18T06:27:35.845Z,1.63
2022-11-18T06:30:04.276Z,1.70
2022-11-18T06:32:32.235Z,1.50
2022-11-18T06:35:00.165Z,1.90
2022-11-18T06:37:28.104Z,1.60
2022-11-18T06:39:56.455Z,1.30
2022-11-18T06:42:46.312Z,1.50
2022-11-18T06:45:14.463Z,1.50
2022-11-18T06:47:42.679Z,1.00
2022-11-18T06:50:11.248Z,1.30
2022-11-18T06:52:39.188Z,1.13
2022-11-18T06:55:08.395Z,1.13
2022-11-18T06:57:37.838Z,1.00
2022-11-18T07:00:07.056Z,1.03
2022-11-18T07:02:37.339Z,1.03
2022-11-18T07:05:06.228Z,1.33
2022-11-18T07:07:41.539Z,0.90
2022-11-18T07:10:11.043Z,0.80
2022-11-18T07:12:40.372Z,0.80
2022-11-18T07:15:09.454Z,0.70
2022-11-18T07:17:37.440Z,1.27
2022-11-18T07:20:06.047Z,1.00
2022-11-18T07:22:33.994Z,1.43
2022-11-18T07:25:01.928Z,1.60
2022-11-18T07:27:29.845Z,1.37
2022-11-18T07:29:59.256Z,1.00
2022-11-18T07:32:27.240Z,1.07
2022-11-18T07:34:55.136Z,1.07
2022-11-18T07:37:23.038Z,1.60
2022-11-18T07:39:50.981Z,1.40
2022-11-18T07:42:18.911Z,1.13
2022-11-18T07:44:46.911Z,1.40
2022-11-18T07:47:16.204Z,1.40
2022-11-18T07:49:44.167Z,1.90
2022-11-18T07:52:12.121Z,1.40
2022-11-18T07:54:40.127Z,1.83
2022-11-18T07:57:08.072Z,1.43
2022-11-18T07:59:35.973Z,1.60
2022-11-18T08:02:03.992Z,1.03
2022-11-18T08:04:33.374Z,3.57
2022-11-18T08:07:01.451Z,1.30
2022-11-18T08:09:29.429Z,1.20
2022-11-18T08:11:57.381Z,1.00
2022-11-18T08:14:25.381Z,1.10
2022-11-18T08:16:53.329Z,0.90
2022-11-18T08:19:21.465Z,0.83
2022-11-18T08:21:50.749Z,0.90
2022-11-18T08:24:19.054Z,0.83
2022-11-18T08:26:46.971Z,0.90
2022-11-18T08:29:17.861Z,0.93
2022-11-18T08:31:48.367Z,1.00
2022-11-18T08:34:16.386Z,0.90
2022-11-18T08:36:45.294Z,0.90
2022-11-18T08:39:15.122Z,1.10
2022-11-18T08:41:46.780Z,0.93
2022-11-18T08:44:16.600Z,0.90
2022-11-18T08:46:45.965Z,1.00
2022-11-18T08:49:13.905Z,0.80
2022-11-18T08:51:41.830Z,0.70
2022-11-18T08:54:09.792Z,0.90
2022-11-18T08:56:40.156Z,0.80
2022-11-18T08:59:08.985Z,0.80
2022-11-18T09:01:37.647Z,0.60
2022-11-18T09:04:05.886Z,1.00
2022-11-18T09:06:34.676Z,0.70
2022-11-18T09:09:06.394Z,0.83
2022-11-18T09:11:35.372Z,0.70
2022-11-18T09:16:52.928Z,1.00
2022-11-18T09:22:09.327Z,0.93
2022-11-18T09:24:38.107Z,1.40
2022-11-18T09:29:57.768Z,1.13
2022-11-18T09:32:25.743Z,1.20
2022-11-18T09:34:53.693Z,1.27
2022-11-18T09:37:22.468Z,1.50
2022-11-18T09:39:50.413Z,1.23
2022-11-18T09:42:32.442Z,1.30
2022-11-18T09:45:14.671Z,1.77
2022-11-18T09:47:45.087Z,1.30
2022-11-18T09:50:47.367Z,1.10
2022-11-18T09:53:12.915Z,1.33
2022-11-18T09:55:42.009Z,1.37
2022-11-18T09:58:19.266Z,1.50
2022-11-18T10:00:48.795Z,0.97
2022-11-18T10:03:24.060Z,1.53
2022-11-18T10:05:57.938Z,1.53
2022-11-18T10:08:29.569Z,1.97
2022-11-18T10:11:04.641Z,1.60
2022-11-18T10:13:46.320Z,1.00
2022-11-18T10:16:29.883Z,1.30
2022-11-18T10:19:06.562Z,1.50
2022-11-18T10:21:46.289Z,1.40
2022-11-18T10:24:20.305Z,1.07
2022-11-18T10:26:48.689Z,1.23
2022-11-18T10:29:16.796Z,1.23
2022-11-18T10:32:02.646Z,1.37
2022-11-18T10:34:32.446Z,1.10
2022-11-18T10:37:02.059Z,1.10
2022-11-18T10:39:30.178Z,1.10
2022-11-18T10:42:01.959Z,0.90
2022-11-18T10:44:36.439Z,1.03
2022-11-18T10:47:25.085Z,1.27
2022-11-18T10:49:54.003Z,0.97
2022-11-18T10:52:22.450Z,0.90
2022-11-18T10:55:20.807Z,0.77
2022-11-18T10:57:51.172Z,0.87
2022-11-18T11:00:50.173Z,1.27
2022-11-18T11:03:26.491Z,0.80
2022-11-18T11:06:16.699Z,0.60
2022-11-18T11:08:50.422Z,1.03
2022-11-18T11:11:26.275Z,0.90
2022-11-18T11:14:01.107Z,0.90
2022-11-18T11:16:30.543Z,0.80
2022-11-18T11:19:04.156Z,0.83
2022-11-18T11:21:32.290Z,0.63
2022-11-18T11:24:00.258Z,0.87
2022-11-18T11:29:38.462Z,0.70
2022-11-18T11:32:16.022Z,0.80
2022-11-18T11:34:51.963Z,1.10
2022-11-18T11:37:30.127Z,0.73
2022-11-18T11:40:21.769Z,1.30
2022-11-18T11:43:02.372Z,1.33
2022-11-18T11:45:37.162Z,1.10
2022-11-18T11:48:32.033Z,1.07
2022-11-18T11:51:07.121Z,0.90
2022-11-18T11:54:10.073Z,0.90
2022-11-18T11:56:43.571Z,0.67
2022-11-18T11:59:22.388Z,1.00
2022-11-18T12:02:00.652Z,0.70
2022-11-18T12:04:38.551Z,0.73
2022-11-18T12:07:15.115Z,0.80
2022-11-18T12:10:02.414Z,0.80
2022-11-18T12:12:38.197Z,0.83
2022-11-18T12:15:25.666Z,1.17
2022-11-18T12:18:01.299Z,0.90
2022-11-18T12:20:42.238Z,1.40
2022-11-18T12:23:16.720Z,1.30
2022-11-18T12:25:59.829Z,1.00
2022-11-18T12:28:31.512Z,0.93
2022-11-18T12:31:35.262Z,0.90
2022-11-18T12:34:23.109Z,1.27
2022-11-18T12:36:51.074Z,1.40
2022-11-18T12:39:50.245Z,1.27
2022-11-18T12:43:01.571Z,1.07
2022-11-18T12:45:59.046Z,1.43
2022-11-18T12:48:32.444Z,1.30
2022-11-18T12:51:02.267Z,1.53
2022-11-18T12:53:38.653Z,1.60
2022-11-18T12:56:23.784Z,1.70
2022-11-18T12:58:54.121Z,1.67
2022-11-18T13:01:24.273Z,1.80
2022-11-18T13:03:53.564Z,2.00
2022-11-18T13:06:26.098Z,2.03
2022-11-18T13:08:58.502Z,2.27
2022-11-18T13:11:47.821Z,2.17
2022-11-18T13:14:36.496Z,2.80
2022-11-18T13:17:22.260Z,2.93
2022-11-18T13:19:57.823Z,2.77
2022-11-18T13:22:43.487Z,3.03
2022-11-18T13:25:32.197Z,2.87
2022-11-18T13:28:09.085Z,2.90
2022-11-18T13:30:45.456Z,2.70
2022-11-18T13:33:13.488Z,3.40
2022-11-18T13:35:41.728Z,3.53
2022-11-18T13:38:27.428Z,3.40
2022-11-18T13:41:07.886Z,3.33
2022-11-18T13:43:37.475Z,3.30
2022-11-18T13:46:09.028Z,3.20
2022-11-18T13:48:48.745Z,3.80
2022-11-18T13:51:16.960Z,3.27
2022-11-18T13:53:45.760Z,3.40
2022-11-18T13:56:20.614Z,3.37
2022-11-18T13:59:16.229Z,3.33
2022-11-18T14:01:46.179Z,3.40
2022-11-18T14:04:20.104Z,3.20
2022-11-18T14:06:48.549Z,2.97
2022-11-18T14:09:26.148Z,3.20
2022-11-18T14:12:03.741Z,3.90
2022-11-18T14:14:36.454Z,3.27
2022-11-18T14:17:07.150Z,3.40
2022-11-18T14:19:37.348Z,3.60
2022-11-18T14:22:11.597Z,4.30
2022-11-18T14:24:41.867Z,3.23
2022-11-18T14:27:39.478Z,4.13
2022-11-18T14:30:32.477Z,3.30
2022-11-18T14:33:15.377Z,3.53
2022-11-18T14:35:45.923Z,3.13
2022-11-18T14:38:36.671Z,3.10
2022-11-18T14:41:06.667Z,3.03
2022-11-18T14:43:34.640Z,3.07
2022-11-18T14:46:06.423Z,2.57
2022-11-18T14:48:34.409Z,2.70
2022-11-18T14:51:02.476Z,2.67
2022-11-18T14:53:30.391Z,2.33
2022-11-18T14:56:00.041Z,2.63
2022-11-18T14:58:27.997Z,2.30
2022-11-18T15:00:56.324Z,1.93
2022-11-18T15:03:25.779Z,2.30
2022-11-18T15:05:53.824Z,1.80
2022-11-18T15:08:21.839Z,2.13
2022-11-18T15:10:49.824Z,2.17
2022-11-18T15:13:17.742Z,1.70
2022-11-18T15:15:45.781Z,1.93
2022-11-18T15:18:13.883Z,2.33
2022-11-18T15:20:43.251Z,1.90
2022-11-18T15:23:11.184Z,1.90
2022-11-18T15:25:39.211Z,2.13
2022-11-18T15:28:07.227Z,2.17
2022-11-18T15:30:35.204Z,2.10
2022-11-18T15:33:03.155Z,1.47
2022-11-18T15:35:31.159Z,2.23
2022-11-18T15:38:00.729Z,2.13
2022-11-18T15:40:28.695Z,2.00
2022-11-18T15:42:56.603Z,1.90
2022-11-18T15:45:24.547Z,5.60
2022-11-18T15:47:53.089Z,3.00
2022-11-18T15:50:21.011Z,4.57
2022-11-18T15:52:48.975Z,2.67
2022-11-18T15:55:18.458Z,3.40
2022-11-18T15:57:46.485Z,2.87
2022-11-18T16:00:15.648Z,4.77
2022-11-18T16:02:45.199Z,2.37
2022-11-18T16:05:13.425Z,3.00
2022-11-18T16:07:41.484Z,2.47
2022-11-18T16:10:28.913Z,2.90
2022-11-18T16:12:58.217Z,2.70
2022-11-18T16:15:44.261Z,2.50
2022-11-18T16:18:12.678Z,2.10
2022-11-18T16:20:40.664Z,2.63
2022-11-18T16:23:08.611Z,2.47
2022-11-18T16:25:36.810Z,2.20
2022-11-18T16:28:07.160Z,2.50
2022-11-18T16:30:53.018Z,2.00
2022-11-18T16:33:20.987Z,2.30
2022-11-18T16:35:49.541Z,1.90
2022-11-18T16:38:17.556Z,2.27
2022-11-18T16:40:45.508Z,2.07
2022-11-18T16:43:14.773Z,2.20
2022-11-18T16:45:50.798Z,1.90
2022-11-18T16:48:18.741Z,2.30
2022-11-18T16:50:46.828Z,2.80
2022-11-18T16:53:14.917Z,2.50
2022-11-18T16:55:42.837Z,2.60
2022-11-18T16:58:11.761Z,2.77
2022-11-18T17:01:16.072Z,2.27
2022-11-18T17:03:29.924Z,3.23
2022-11-18T17:06:01.316Z,2.73
2022-11-18T17:08:29.356Z,2.60
2022-11-18T17:10:57.275Z,2.60
2022-11-18T17:13:25.288Z,2.33
2022-11-18T17:15:54.556Z,3.20
2022-11-18T17:18:22.540Z,3.23
2022-11-18T17:20:50.579Z,3.20
2022-11-18T17:23:18.586Z,3.50
2022-11-18T17:25:46.591Z,3.10
2022-11-18T17:28:14.612Z,3.20
2022-11-18T17:30:47.103Z,2.90
2022-11-18T17:33:19.229Z,2.77
2022-11-18T17:35:47.281Z,2.60
2022-11-18T17:38:15.342Z,4.17
2022-11-18T17:40:43.588Z,5.13
2022-11-18T17:43:11.537Z,4.73
2022-11-18T17:45:41.776Z,4.30
2022-11-18T17:48:09.895Z,4.87
2022-11-18T17:50:39.272Z,4.17
2022-11-18T17:53:07.212Z,4.07
2022-11-18T17:55:35.205Z,4.20
2022-11-18T17:58:04.403Z,4.10
2022-11-18T18:00:32.805Z,3.70
2022-11-18T18:03:00.988Z,4.50
2022-11-18T18:05:29.689Z,3.93
2022-11-18T18:07:59.947Z,3.90
2022-11-18T18:10:28.193Z,3.77
2022-11-18T18:13:13.800Z,3.40
2022-11-18T18:15:41.838Z,4.00
2022-11-18T18:18:09.935Z,3.50
2022-11-18T18:20:39.246Z,4.33
2022-11-18T18:23:09.328Z,3.30
2022-11-18T18:25:37.243Z,3.20
2022-11-18T18:28:06.170Z,3.43
2022-11-18T18:30:34.125Z,3.20
2022-11-18T18:33:02.179Z,3.23
2022-11-18T18:35:30.141Z,3.33
2022-11-18T18:37:58.404Z,3.80
2022-11-18T18:40:27.803Z,3.40
2022-11-18T18:42:55.928Z,4.20
2022-11-18T18:45:41.592Z,3.57
2022-11-18T18:48:09.652Z,3.80
2022-11-18T18:50:37.688Z,3.53
2022-11-18T18:53:05.735Z,4.70
2022-11-18T18:55:35.941Z,4.10
2022-11-18T18:58:05.374Z,4.23
2022-11-18T19:00:33.372Z,3.73
2022-11-18T19:03:01.361Z,3.90
2022-11-18T19:05:53.906Z,3.80
2022-11-18T19:08:17.516Z,3.27
2022-11-18T19:10:46.948Z,3.00
2022-11-18T19:13:14.032Z,3.30
2022-11-18T19:15:42.620Z,3.10
2022-11-18T19:18:10.675Z,3.87
2022-11-18T19:20:38.769Z,4.30
2022-11-18T19:23:10.729Z,4.47
2022-11-18T19:25:38.917Z,3.97
2022-11-18T19:28:08.324Z,4.53
2022-11-18T19:30:36.327Z,4.30
2022-11-18T19:33:05.476Z,4.80
2022-11-18T19:35:33.437Z,4.20
2022-11-18T19:38:01.425Z,4.27
2022-11-18T19:40:29.422Z,3.40
2022-11-18T19:42:57.374Z,4.13
2022-11-18T19:45:26.683Z,3.73
2022-11-18T19:47:54.937Z,3.30
2022-11-18T19:50:22.922Z,3.30
2022-11-18T19:52:50.830Z,3.90
2022-11-18T19:55:18.875Z,3.57
2022-11-18T19:57:46.806Z,4.10
2022-11-18T20:00:16.070Z,3.40
2022-11-18T20:02:45.414Z,3.77
2022-11-18T20:05:30.632Z,3.63
2022-11-18T20:07:58.531Z,3.70
2022-11-18T20:10:26.500Z,4.43
2022-11-18T20:12:56.141Z,3.40
2022-11-18T20:15:24.097Z,3.77
2022-11-18T20:17:53.375Z,4.27
2022-11-18T20:20:21.273Z,3.73
2022-11-18T20:22:49.198Z,4.10
2022-11-18T20:25:17.300Z,4.00
2022-11-18T20:27:45.222Z,4.10
2022-11-18T20:30:13.923Z,5.37
2022-11-18T20:32:41.824Z,6.07
2022-11-18T20:35:11.351Z,4.80
2022-11-18T20:37:39.306Z,4.70
2022-11-18T20:40:08.422Z,5.03
2022-11-18T20:42:53.996Z,5.27
2022-11-18T20:45:22.201Z,4.40
2022-11-18T20:47:50.196Z,5.60
2022-11-18T20:50:19.917Z,5.50
2022-11-18T20:52:47.874Z,4.13
2022-11-18T20:55:15.986Z,4.63
2022-11-18T20:57:43.935Z,4.80
2022-11-18T21:00:12.949Z,4.90
2022-11-18T21:02:40.892Z,5.80
2022-11-18T21:05:09.511Z,6.57
2022-11-18T21:07:38.947Z,5.40
2022-11-18T21:10:08.225Z,5.30
2022-11-18T21:12:36.197Z,5.83
2022-11-18T21:15:03.484Z,4.60
2022-11-18T21:17:31.498Z,4.53
2022-11-18T21:20:20.233Z,4.97
2022-11-18T21:22:48.557Z,5.70
2022-11-18T21:25:17.593Z,4.77
2022-11-18T21:27:46.885Z,5.80
2022-11-18T21:30:15.106Z,6.17
2022-11-18T21:32:43.088Z,6.13
2022-11-18T21:35:11.128Z,6.10
2022-11-18T21:37:39.068Z,6.43
2022-11-18T21:40:09.646Z,8.37
2022-11-18T21:42:37.625Z,13.33
2022-11-18T21:45:06.383Z,10.60
2022-11-18T21:47:34.384Z,10.80
2022-11-18T21:50:02.436Z,11.00
2022-11-18T21:52:30.408Z,11.60
2022-11-18T21:54:58.453Z,9.97
2022-11-18T21:57:27.994Z,9.63
2022-11-18T21:59:56.303Z,5.60
2022-11-18T22:02:24.260Z,5.40
2022-11-18T22:04:55.875Z,4.20
2022-11-18T22:07:25.309Z,4.37
2022-11-18T22:09:55.243Z,2.93
2022-11-18T22:12:23.279Z,2.60
2022-11-18T22:14:52.556Z,3.10
2022-11-18T22:17:20.456Z,2.57
2022-11-18T22:19:48.388Z,3.00
2022-11-18T22:22:16.540Z,3.30
2022-11-18T22:24:44.476Z,2.47
2022-11-18T22:27:12.424Z,3.35
2022-11-18T22:29:40.367Z,3.00
2022-11-18T22:32:09.678Z,2.60
2022-11-18T22:34:37.783Z,2.67
2022-11-18T22:37:05.905Z,2.67
2022-11-18T22:39:33.911Z,2.77
2022-11-18T22:42:19.509Z,2.47
2022-11-18T22:44:47.534Z,2.25
2022-11-18T22:47:16.848Z,2.38
2022-11-18T22:49:44.936Z,2.45
2022-11-18T22:52:12.947Z,2.45
2022-11-18T22:54:40.967Z,2.33
2022-11-18T22:57:09.274Z,2.28
2022-11-18T22:59:37.227Z,3.20
2022-11-18T23:02:05.419Z,3.50
2022-11-18T23:04:34.706Z,2.58
2022-11-18T23:07:02.795Z,3.38
2022-11-18T23:09:31.157Z,2.72
2022-11-18T23:12:16.523Z,1.90
2022-11-18T23:14:44.449Z,2.00
2022-11-18T23:17:12.336Z,2.53
2022-11-18T23:19:43.787Z,2.75
2022-11-18T23:22:12.450Z,2.72
2022-11-18T23:24:40.739Z,2.38
2022-11-18T23:27:08.807Z,2.70
2022-11-18T23:29:36.922Z,3.08
2022-11-18T23:32:05.415Z,2.97
2022-11-18T23:34:33.362Z,2.50
2022-11-18T23:37:02.670Z,3.00
2022-11-18T23:39:30.695Z,3.00
2022-11-18T23:41:58.682Z,3.22
2022-11-18T23:44:40.591Z,3.63
2022-11-18T23:47:08.513Z,4.35
2022-11-18T23:49:36.527Z,2.88
2022-11-18T23:52:06.043Z,3.53
2022-11-18T23:54:33.994Z,3.25
2022-11-18T23:57:04.360Z,3.47
2022-11-18T23:59:32.642Z,3.33
